K4BM

Wilkerson Pass Airport

Wilkerson Pass, Colorado, USA
METAR K4BM 210412Z AUTO 24003KT 10SM CLR 12/01 A3074 RMK AO2
Observed Flight Rules
Jul-21 @ 04:12 UTC (11 minutes ago) Visual Flight Rules
Wind Visibility Clouds
240° at 3 knots 10 miles
  • Clear skies
Temperatures Readings
Current 12°C / 54°F
Dewpoint 1°C / 34°F
Humidity 47%
Altimeter 30.74" Hg
Pressure 1041 hPa
Elevation 3438
METAR K4BM 210412Z AUTO 24003KT 10SM CLR 12/01 A3074 RMK AO2
Observed Flight Rules
Jul-21 @ 04:12 UTC
(11 minutes ago)
VFR
Wind Visibility
240° at 3 knots 10 miles
Clouds
  • Clear skies
Temperature Dewpoint
12°C / 54°F 1°C / 34°F
Humidity Altimeter Pressure
47% 30.74" Hg 1041 hPa